Time;durP1;ratioP1;P1;durP2;ratioP2;P2;SDS_P1;SDS_P2;PMS_P1;PMS_P2;Temp;Humidity;BMP_temperature;BMP_pressure;BME280_temperature;BME280_humidity;BME280_pressure;Samples;Min_cycle;Max_cycle;Signal;HPM_P1;HPM_P2
2022/10/22 00:01:11;;;;;;;31.60;20.30;;;13.10;99.90;;;;;;5183110;28;20192;-51
2022/10/22 00:03:41;;;;;;;30.33;19.63;;;13.10;99.90;;;;;;5170004;28;20331;-48
2022/10/22 00:06:12;;;;;;;29.60;20.03;;;13.10;99.90;;;;;;5181607;28;20593;-50
2022/10/22 00:08:42;;;;;;;46.17;25.57;;;13.10;99.90;;;;;;5178319;28;20247;-49
2022/10/22 00:11:15;;;;;;;29.27;20.00;;;13.20;99.90;;;;;;5178996;28;20181;-51
2022/10/22 00:13:46;;;;;;;34.57;20.23;;;13.20;99.90;;;;;;5183017;28;20180;-50
2022/10/22 00:16:17;;;;;;;51.27;25.87;;;13.20;99.90;;;;;;5183132;28;20459;-49
2022/10/22 00:18:48;;;;;;;25.30;17.57;;;13.20;99.90;;;;;;5185336;28;20457;-47
2022/10/22 00:21:18;;;;;;;23.50;16.47;;;13.20;99.90;;;;;;5180490;28;20180;-48
2022/10/22 00:23:49;;;;;;;37.03;20.80;;;13.30;99.90;;;;;;5185902;28;20199;-49
2022/10/22 00:26:20;;;;;;;56.37;24.43;;;13.30;99.90;;;;;;5182081;28;20188;-49
2022/10/22 00:28:52;;;;;;;29.07;18.97;;;13.30;99.90;;;;;;5188138;28;20204;-50
2022/10/22 00:31:24;;;;;;;56.70;27.90;;;13.30;99.90;;;;;;5179151;28;20439;-49
2022/10/22 00:33:54;;;;;;;41.90;21.73;;;13.30;99.90;;;;;;5177681;28;20950;-48
2022/10/22 00:36:25;;;;;;;38.33;21.97;;;13.30;99.90;;;;;;5183916;28;20455;-49
2022/10/22 00:38:56;;;;;;;25.23;16.00;;;13.30;99.90;;;;;;5165472;28;20204;-51
2022/10/22 00:41:27;;;;;;;40.80;22.03;;;13.30;99.90;;;;;;5178644;28;20235;-49
2022/10/22 00:44:00;;;;;;;53.50;26.37;;;13.40;99.90;;;;;;5187388;28;20423;-48
2022/10/22 00:46:31;;;;;;;55.23;26.97;;;13.30;99.90;;;;;;5203771;28;20192;-48
2022/10/22 00:49:03;;;;;;;53.97;27.80;;;13.30;99.90;;;;;;5187776;28;20594;-48
2022/10/22 00:51:34;;;;;;;37.27;23.73;;;13.30;99.90;;;;;;5186724;28;20660;-48
2022/10/22 00:54:07;;;;;;;26.83;17.33;;;13.30;99.90;;;;;;5179185;28;20436;-48
2022/10/22 00:56:38;;;;;;;23.30;16.30;;;13.30;99.90;;;;;;5184241;28;20567;-48
2022/10/22 00:59:11;;;;;;;57.57;28.57;;;13.30;99.90;;;;;;5178244;28;21005;-48
2022/10/22 01:01:41;;;;;;;26.13;17.80;;;13.30;99.90;;;;;;5187154;28;20189;-50
2022/10/22 01:04:12;;;;;;;34.20;18.47;;;13.30;99.90;;;;;;5183394;28;20529;-49
2022/10/22 01:06:43;;;;;;;37.70;19.50;;;13.30;99.90;;;;;;5184913;28;20184;-50
2022/10/22 01:09:16;;;;;;;18.30;14.10;;;13.30;99.90;;;;;;5184577;28;21067;-49
2022/10/22 01:11:59;;;;;;;33.83;21.83;;;13.20;99.90;;;;;;5193174;28;20674;-49
2022/10/22 01:14:42;;;;;;;57.17;27.37;;;13.30;99.90;;;;;;5185579;28;20442;-49
2022/10/22 01:17:32;;;;;;;30.60;20.80;;;13.20;99.90;;;;;;5186068;28;20467;-48
2022/10/22 01:20:36;;;;;;;34.70;21.30;;;13.40;99.90;;;;;;5178484;28;20454;-49
2022/10/22 01:23:34;;;;;;;27.87;17.83;;;13.30;99.90;;;;;;5186963;28;20431;-48
2022/10/22 01:26:09;;;;;;;32.40;19.97;;;13.40;99.90;;;;;;5182661;28;20450;-49
2022/10/22 01:28:55;;;;;;;37.40;21.37;;;13.40;99.90;;;;;;5184761;28;20505;-49
2022/10/22 01:31:31;;;;;;;39.23;22.30;;;13.40;99.90;;;;;;5175432;28;20954;-50
2022/10/22 01:34:03;;;;;;;47.00;23.40;;;13.60;99.90;;;;;;5169612;28;20449;-48
2022/10/22 01:36:36;;;;;;;39.33;22.60;;;13.50;99.90;;;;;;5187420;28;20471;-48
2022/10/22 01:39:07;;;;;;;32.67;19.83;;;13.60;99.90;;;;;;5189065;28;20494;-49
2022/10/22 01:41:40;;;;;;;34.27;19.20;;;13.50;99.90;;;;;;5184020;28;20881;-47
2022/10/22 01:44:26;;;;;;;33.27;18.80;;;13.40;99.90;;;;;;5185560;28;20440;-52
2022/10/22 01:47:22;;;;;;;27.80;17.37;;;13.40;99.90;;;;;;5198474;28;20435;-48
2022/10/22 01:50:14;;;;;;;28.20;15.93;;;13.30;99.90;;;;;;5181370;28;20473;-49
2022/10/22 01:53:05;;;;;;;18.27;13.53;;;13.30;99.90;;;;;;5182519;28;20939;-50
2022/10/22 01:56:05;;;;;;;17.50;12.93;;;13.30;99.90;;;;;;5178266;28;20458;-50
2022/10/22 01:58:53;;;;;;;19.63;13.97;;;13.20;99.90;;;;;;5176415;28;20884;-48
2022/10/22 02:02:02;;;;;;;28.47;18.07;;;13.20;99.90;;;;;;5186386;28;20452;-48
2022/10/22 02:04:38;;;;;;;47.63;25.53;;;13.10;99.90;;;;;;5173774;28;20446;-51
2022/10/22 02:07:14;;;;;;;58.27;28.17;;;13.10;99.90;;;;;;5198101;28;20487;-49
2022/10/22 02:09:45;;;;;;;54.97;29.27;;;13.10;99.90;;;;;;5184286;28;20482;-49
2022/10/22 02:12:19;;;;;;;40.23;24.00;;;13.10;99.90;;;;;;5182525;28;20440;-49
2022/10/22 02:14:51;;;;;;;32.20;17.30;;;13.20;99.90;;;;;;5176614;28;20436;-48
2022/10/22 02:17:26;;;;;;;23.80;15.00;;;13.10;99.90;;;;;;5178921;28;20561;-50
2022/10/22 02:20:01;;;;;;;18.30;12.77;;;13.10;99.90;;;;;;5188833;28;20469;-49
2022/10/22 02:22:32;;;;;;;26.93;17.07;;;13.10;99.90;;;;;;5186367;28;20446;-49
2022/10/22 02:25:05;;;;;;;41.77;22.20;;;13.10;99.90;;;;;;5185272;28;20539;-48
2022/10/22 02:27:46;;;;;;;45.53;25.50;;;13.10;99.90;;;;;;5185478;28;20894;-49
2022/10/22 02:30:19;;;;;;;27.80;16.67;;;13.20;99.90;;;;;;5182496;28;20444;-48
2022/10/22 02:32:57;;;;;;;54.57;27.60;;;13.10;99.90;;;;;;5187077;28;20537;-49
2022/10/22 02:35:29;;;;;;;23.10;15.53;;;13.10;99.90;;;;;;5187258;28;20443;-50
2022/10/22 02:38:00;;;;;;;18.13;12.83;;;13.10;99.90;;;;;;5185542;28;20964;-47
2022/10/22 02:40:31;;;;;;;14.50;12.13;;;13.10;99.90;;;;;;5184147;28;20525;-48
2022/10/22 02:43:05;;;;;;;13.77;10.73;;;13.00;99.90;;;;;;5186438;28;20530;-50
2022/10/22 02:45:36;;;;;;;12.23;10.47;;;13.00;99.90;;;;;;5184234;28;20188;-49
2022/10/22 02:48:07;;;;;;;14.03;10.00;;;13.00;99.90;;;;;;5173855;28;20481;-48
2022/10/22 02:50:37;;;;;;;13.87;10.17;;;12.90;99.90;;;;;;5178649;28;20230;-49
2022/10/22 02:53:08;;;;;;;9.67;8.70;;;12.90;99.90;;;;;;5181811;28;20197;-48
2022/10/22 02:55:39;;;;;;;19.23;10.47;;;12.90;99.90;;;;;;5162251;28;20205;-50
2022/10/22 02:58:09;;;;;;;18.90;13.80;;;12.80;99.90;;;;;;5182625;28;20789;-49
2022/10/22 03:00:40;;;;;;;31.93;18.53;;;12.80;99.90;;;;;;5167967;28;20172;-48
2022/10/22 03:03:11;;;;;;;31.07;16.57;;;12.80;99.90;;;;;;5177514;28;20193;-48
2022/10/22 03:05:41;;;;;;;31.10;18.20;;;12.80;99.90;;;;;;5185118;28;20648;-48
2022/10/22 03:08:12;;;;;;;23.33;14.83;;;12.90;99.90;;;;;;5179256;28;20723;-50
2022/10/22 03:10:42;;;;;;;26.50;15.57;;;12.90;99.90;;;;;;5182524;28;20962;-48
2022/10/22 03:13:13;;;;;;;32.20;17.13;;;12.90;99.90;;;;;;5185602;28;20188;-49
2022/10/22 03:15:44;;;;;;;48.60;21.83;;;12.80;99.90;;;;;;5176943;28;20208;-48
2022/10/22 03:18:14;;;;;;;23.17;15.20;;;12.80;99.90;;;;;;5182617;28;20207;-48
2022/10/22 03:20:45;;;;;;;30.13;18.20;;;12.80;99.90;;;;;;5166290;28;20231;-49
2022/10/22 03:23:18;;;;;;;30.13;17.67;;;12.80;99.90;;;;;;5181230;28;20725;-50
2022/10/22 03:25:49;;;;;;;17.80;13.30;;;12.80;99.90;;;;;;5182020;28;20208;-49
2022/10/22 03:28:20;;;;;;;15.60;11.63;;;12.80;99.90;;;;;;5182109;28;20471;-49
2022/10/22 03:30:50;;;;;;;17.23;11.60;;;12.80;99.90;;;;;;5165046;28;20610;-53
2022/10/22 03:33:21;;;;;;;14.27;11.00;;;12.80;99.90;;;;;;5180597;28;20212;-49
2022/10/22 03:35:52;;;;;;;18.17;12.50;;;12.80;99.90;;;;;;5173428;28;20239;-48
2022/10/22 03:38:22;;;;;;;14.17;10.80;;;12.80;99.90;;;;;;5183522;28;20237;-49
2022/10/22 03:40:53;;;;;;;43.23;22.10;;;12.80;99.90;;;;;;5183550;28;20187;-48
2022/10/22 03:43:24;;;;;;;45.67;20.50;;;12.80;99.90;;;;;;5183703;28;20180;-48
2022/10/22 03:45:54;;;;;;;30.37;18.57;;;12.90;99.90;;;;;;5184720;28;20536;-49
2022/10/22 03:48:25;;;;;;;48.30;21.67;;;12.80;99.90;;;;;;5181152;28;20204;-49
2022/10/22 03:50:55;;;;;;;28.00;17.40;;;12.80;99.90;;;;;;5181006;28;20184;-48
2022/10/22 03:53:26;;;;;;;50.80;25.13;;;12.90;99.90;;;;;;5180433;28;20189;-48
2022/10/22 03:55:57;;;;;;;27.03;17.70;;;12.80;99.90;;;;;;5183721;28;20271;-49
2022/10/22 03:58:27;;;;;;;62.10;26.20;;;12.90;99.90;;;;;;5182699;28;20216;-49
2022/10/22 04:01:04;;;;;;;39.67;19.80;;;12.90;99.90;;;;;;5181158;28;20564;-50
2022/10/22 04:03:35;;;;;;;38.57;20.50;;;12.90;99.90;;;;;;5178473;28;20188;-51
2022/10/22 04:06:09;;;;;;;59.73;28.30;;;12.90;99.90;;;;;;5182121;28;20439;-52
2022/10/22 04:08:40;;;;;;;45.10;21.53;;;12.90;99.90;;;;;;5182010;28;20493;-51
2022/10/22 04:11:13;;;;;;;41.43;20.10;;;12.90;99.90;;;;;;5182076;28;20439;-49
2022/10/22 04:13:43;;;;;;;23.77;15.03;;;12.90;99.90;;;;;;5179342;28;20446;-50
2022/10/22 04:16:18;;;;;;;18.90;12.37;;;12.90;99.90;;;;;;5177571;28;20477;-49
2022/10/22 04:18:50;;;;;;;13.90;11.00;;;12.90;99.90;;;;;;5180132;28;20207;-49
2022/10/22 04:21:20;;;;;;;11.77;8.93;;;12.90;99.90;;;;;;5175606;28;20451;-49
2022/10/22 04:23:52;;;;;;;11.57;9.40;;;12.90;99.90;;;;;;5185707;28;20416;-50
2022/10/22 04:26:23;;;;;;;10.20;8.37;;;12.90;99.90;;;;;;5182947;28;20440;-51
2022/10/22 04:28:53;;;;;;;19.83;12.83;;;12.90;99.90;;;;;;5181054;28;20464;-49
2022/10/22 04:31:24;;;;;;;22.93;14.73;;;12.90;99.90;;;;;;5181138;28;20454;-48
2022/10/22 04:33:57;;;;;;;19.13;13.43;;;12.90;99.90;;;;;;5182769;28;20640;-49
2022/10/22 04:36:28;;;;;;;25.60;14.80;;;12.90;99.90;;;;;;5180778;28;20464;-48
2022/10/22 04:39:00;;;;;;;22.23;14.73;;;12.90;99.90;;;;;;5166612;28;20877;-48
2022/10/22 04:41:33;;;;;;;28.80;15.10;;;12.90;99.90;;;;;;5183926;28;20266;-49
2022/10/22 04:44:04;;;;;;;17.80;12.40;;;12.90;99.90;;;;;;5185705;28;20435;-49
2022/10/22 04:46:35;;;;;;;30.57;16.73;;;12.90;99.90;;;;;;5182659;28;20454;-48
2022/10/22 04:49:06;;;;;;;41.80;20.47;;;12.90;99.90;;;;;;5183440;28;20463;-47
2022/10/22 04:51:36;;;;;;;37.03;20.03;;;12.90;99.90;;;;;;5183652;28;20189;-50
2022/10/22 04:54:07;;;;;;;51.43;23.93;;;12.90;99.90;;;;;;5178015;28;20619;-52
2022/10/22 04:56:37;;;;;;;43.57;24.83;;;12.90;99.90;;;;;;5171743;28;20200;-49
2022/10/22 04:59:11;;;;;;;58.53;30.43;;;12.80;99.90;;;;;;5183080;28;20208;-50
2022/10/22 05:01:43;;;;;;;71.30;27.37;;;12.80;99.90;;;;;;5179141;28;20571;-49
2022/10/22 05:04:16;;;;;;;46.53;26.10;;;12.80;99.90;;;;;;5171904;28;20442;-52
2022/10/22 05:06:46;;;;;;;46.23;22.17;;;12.80;99.90;;;;;;5185783;28;20512;-50
2022/10/22 05:09:19;;;;;;;37.13;20.63;;;12.80;99.90;;;;;;5180855;28;20998;-50
2022/10/22 05:11:52;;;;;;;30.83;18.73;;;12.80;99.90;;;;;;5177877;28;20184;-49
2022/10/22 05:14:24;;;;;;;50.67;25.17;;;12.80;99.90;;;;;;5181671;28;20529;-49
2022/10/22 05:16:54;;;;;;;35.60;19.10;;;12.80;99.90;;;;;;5182240;28;20550;-48
2022/10/22 05:19:28;;;;;;;24.80;15.40;;;12.70;99.90;;;;;;5184844;28;20538;-47
2022/10/22 05:22:00;;;;;;;23.10;13.37;;;12.80;99.90;;;;;;5177905;28;20188;-48
2022/10/22 05:24:32;;;;;;;15.00;10.80;;;12.70;99.90;;;;;;5184339;28;20530;-50
2022/10/22 05:27:03;;;;;;;13.27;9.77;;;12.60;99.90;;;;;;5184776;28;20442;-48
2022/10/22 05:29:34;;;;;;;13.30;9.63;;;12.60;99.90;;;;;;5177246;28;20482;-48
2022/10/22 05:32:04;;;;;;;15.27;11.30;;;12.60;99.90;;;;;;5180249;28;20303;-48
2022/10/22 05:34:35;;;;;;;31.83;15.27;;;12.60;99.90;;;;;;5184671;28;20195;-49
2022/10/22 05:37:05;;;;;;;35.27;19.03;;;12.50;99.90;;;;;;5184255;28;20291;-50
2022/10/22 05:39:39;;;;;;;27.80;14.47;;;12.50;99.90;;;;;;5180234;28;20645;-48
2022/10/22 05:42:09;;;;;;;22.20;13.77;;;12.50;99.90;;;;;;5181274;28;20364;-48
2022/10/22 05:44:40;;;;;;;15.63;10.33;;;12.50;99.90;;;;;;5185767;28;20568;-49
2022/10/22 05:47:10;;;;;;;23.80;13.57;;;12.50;99.90;;;;;;5181367;28;20275;-51
2022/10/22 05:49:41;;;;;;;36.63;17.80;;;12.50;99.90;;;;;;5183380;28;20612;-49
2022/10/22 05:52:11;;;;;;;22.20;13.07;;;12.50;99.90;;;;;;5179025;28;20198;-49
2022/10/22 05:54:42;;;;;;;15.90;11.27;;;12.50;99.90;;;;;;5187798;28;20202;-51
2022/10/22 05:57:13;;;;;;;12.77;10.60;;;12.50;99.90;;;;;;5183754;28;20219;-50
2022/10/22 05:59:43;;;;;;;22.83;12.50;;;12.50;99.90;;;;;;5174025;28;20283;-49
2022/10/22 06:02:14;;;;;;;27.57;16.53;;;12.50;99.90;;;;;;5186853;28;20376;-50
2022/10/22 06:04:44;;;;;;;30.20;16.83;;;12.50;99.90;;;;;;5181155;28;20278;-51
2022/10/22 06:07:15;;;;;;;48.67;24.83;;;12.60;99.90;;;;;;5177746;28;20192;-50
2022/10/22 06:09:49;;;;;;;29.73;17.17;;;12.60;99.90;;;;;;5184267;28;20203;-49
2022/10/22 06:12:19;;;;;;;48.43;24.00;;;12.60;99.90;;;;;;5180437;28;20184;-50
2022/10/22 06:14:50;;;;;;;34.73;18.43;;;12.50;99.90;;;;;;5178328;28;20451;-50
2022/10/22 06:17:20;;;;;;;32.63;17.30;;;12.50;99.90;;;;;;5180737;28;20212;-49
2022/10/22 06:19:51;;;;;;;20.67;14.83;;;12.50;99.90;;;;;;5164156;28;20188;-48
2022/10/22 06:22:21;;;;;;;22.43;12.50;;;12.50;99.90;;;;;;5179316;28;20561;-49
2022/10/22 06:24:52;;;;;;;20.50;11.83;;;12.50;99.90;;;;;;5180827;28;20960;-52
2022/10/22 06:27:22;;;;;;;19.87;12.87;;;12.50;99.90;;;;;;5187105;28;20620;-49
2022/10/22 06:29:53;;;;;;;21.53;13.57;;;12.60;99.90;;;;;;5181479;28;20184;-48
2022/10/22 06:32:24;;;;;;;23.10;13.80;;;12.70;99.90;;;;;;5181707;28;20189;-52
2022/10/22 06:34:54;;;;;;;40.73;19.30;;;12.70;99.90;;;;;;5180782;28;20687;-50
2022/10/22 06:37:25;;;;;;;48.33;23.53;;;12.90;99.90;;;;;;5177933;28;20729;-50
2022/10/22 06:39:55;;;;;;;38.97;18.27;;;12.90;99.90;;;;;;5182470;28;20184;-50
2022/10/22 06:42:27;;;;;;;60.47;23.80;;;13.00;99.90;;;;;;5184837;28;20192;-49
2022/10/22 06:44:58;;;;;;;35.73;18.93;;;13.10;99.90;;;;;;5182120;28;20185;-50
2022/10/22 06:47:30;;;;;;;43.80;19.37;;;13.10;99.90;;;;;;5184056;28;20526;-50
2022/10/22 06:50:01;;;;;;;41.27;19.30;;;13.10;99.90;;;;;;5182957;28;20184;-50
2022/10/22 06:52:31;;;;;;;21.83;13.50;;;13.20;99.90;;;;;;5179828;28;20866;-49
2022/10/22 06:55:02;;;;;;;24.87;15.83;;;13.20;99.90;;;;;;5171359;28;20216;-49
2022/10/22 06:57:33;;;;;;;38.73;20.83;;;13.30;99.90;;;;;;5183353;28;20224;-49
2022/10/22 07:00:06;;;;;;;25.60;17.80;;;13.30;99.90;;;;;;5183853;28;20231;-52
2022/10/22 07:02:36;;;;;;;51.30;24.70;;;13.40;99.90;;;;;;5181897;28;20280;-49
2022/10/22 07:05:07;;;;;;;47.10;21.23;;;13.30;99.90;;;;;;5183304;28;20828;-50
2022/10/22 07:07:38;;;;;;;33.83;20.10;;;13.40;99.90;;;;;;5180570;28;20219;-54
2022/10/22 07:10:08;;;;;;;45.53;20.60;;;13.30;99.90;;;;;;5173901;28;20810;-49
2022/10/22 07:12:39;;;;;;;76.13;32.03;;;13.30;99.90;;;;;;5180719;28;20188;-50
2022/10/22 07:15:10;;;;;;;37.63;21.67;;;13.40;99.90;;;;;;5181805;28;20238;-51
2022/10/22 07:17:40;;;;;;;28.20;19.10;;;13.40;99.90;;;;;;5186134;28;20562;-50
2022/10/22 07:20:11;;;;;;;57.17;27.37;;;13.50;99.90;;;;;;5181245;28;20463;-50
2022/10/22 07:22:42;;;;;;;50.13;21.77;;;13.50;99.90;;;;;;5174661;28;20227;-51
2022/10/22 07:25:12;;;;;;;43.93;20.13;;;13.50;99.90;;;;;;5179451;28;20645;-48
2022/10/22 07:27:43;;;;;;;29.33;15.83;;;13.50;99.90;;;;;;5175197;28;20212;-53
2022/10/22 07:30:13;;;;;;;42.27;20.50;;;13.60;99.90;;;;;;5182680;28;20188;-51
2022/10/22 07:32:44;;;;;;;37.73;18.73;;;13.70;99.90;;;;;;5174391;28;20283;-50
2022/10/22 07:35:14;;;;;;;39.10;22.10;;;13.70;99.90;;;;;;5177303;28;20191;-49
2022/10/22 07:37:45;;;;;;;35.50;21.70;;;13.80;99.90;;;;;;5183014;28;20263;-50
2022/10/22 07:40:16;;;;;;;54.00;21.70;;;13.90;99.90;;;;;;5167826;28;20660;-49
2022/10/22 07:42:46;;;;;;;57.07;23.10;;;13.90;99.90;;;;;;5172024;28;20188;-51
2022/10/22 07:45:17;;;;;;;44.40;22.53;;;14.00;99.90;;;;;;5194185;28;20176;-52
2022/10/22 07:47:48;;;;;;;69.97;26.97;;;14.10;99.90;;;;;;5174102;28;20208;-54
2022/10/22 07:50:18;;;;;;;44.80;22.13;;;14.20;99.90;;;;;;5182034;28;20192;-49
2022/10/22 07:52:49;;;;;;;56.47;24.20;;;14.30;99.90;;;;;;5180607;28;20215;-49
2022/10/22 07:55:19;;;;;;;47.40;23.13;;;14.40;99.90;;;;;;5178784;28;20192;-51
2022/10/22 07:57:50;;;;;;;31.83;18.80;;;14.50;99.90;;;;;;5185521;28;20298;-51
2022/10/22 08:00:21;;;;;;;25.40;17.10;;;14.60;99.90;;;;;;5182502;28;20280;-51
2022/10/22 08:02:51;;;;;;;17.87;14.53;;;14.60;99.90;;;;;;5183206;28;20192;-53
2022/10/22 08:05:22;;;;;;;37.47;19.00;;;14.60;99.90;;;;;;5182855;28;20278;-51
2022/10/22 08:07:53;;;;;;;28.23;16.17;;;14.50;99.90;;;;;;5183479;28;20232;-49
2022/10/22 08:10:23;;;;;;;39.87;19.37;;;14.60;99.90;;;;;;5182315;28;20188;-50
2022/10/22 08:12:54;;;;;;;49.67;21.17;;;14.40;99.90;;;;;;5165289;28;20193;-53
2022/10/22 08:15:26;;;;;;;37.10;18.80;;;14.40;99.90;;;;;;5183929;28;20192;-52
2022/10/22 08:17:56;;;;;;;16.03;12.87;;;14.40;99.90;;;;;;5177103;28;20212;-51
2022/10/22 08:20:27;;;;;;;28.40;16.20;;;14.40;99.90;;;;;;5170849;28;20785;-50
2022/10/22 08:22:58;;;;;;;18.63;13.57;;;14.40;99.90;;;;;;5174694;28;20192;-49
2022/10/22 08:25:29;;;;;;;27.90;13.93;;;14.40;99.90;;;;;;5182034;28;20598;-50
2022/10/22 08:27:59;;;;;;;31.23;17.50;;;14.50;99.90;;;;;;5183220;28;20567;-53
2022/10/22 08:30:32;;;;;;;33.40;18.63;;;14.50;99.90;;;;;;5183863;28;20184;-51
2022/10/22 08:33:04;;;;;;;24.10;14.43;;;14.40;99.90;;;;;;5182778;28;20552;-51
2022/10/22 08:35:34;;;;;;;17.80;13.80;;;14.50;99.90;;;;;;5184555;28;20435;-50
2022/10/22 08:38:05;;;;;;;23.00;15.23;;;14.50;99.90;;;;;;5183727;28;20461;-51
2022/10/22 08:40:39;;;;;;;22.37;14.57;;;14.50;99.90;;;;;;5181881;28;20181;-51
2022/10/22 08:43:48;;;;;;;28.07;15.50;;;14.50;99.90;;;;;;5183066;28;20708;-50
2022/10/22 08:46:19;;;;;;;22.83;15.83;;;14.50;99.90;;;;;;5182107;28;20475;-52
2022/10/22 08:48:51;;;;;;;33.43;18.87;;;14.40;99.90;;;;;;5182520;28;21002;-51
2022/10/22 08:51:32;;;;;;;18.23;12.07;;;14.50;99.90;;;;;;5183963;28;20219;-50
2022/10/22 08:54:35;;;;;;;19.07;12.57;;;14.50;99.90;;;;;;5185126;28;20826;-50
2022/10/22 08:57:14;;;;;;;29.87;16.60;;;14.50;99.90;;;;;;5185107;28;20966;-52
2022/10/22 08:59:56;;;;;;;20.03;14.27;;;14.60;99.90;;;;;;5180324;28;20979;-50
2022/10/22 09:02:39;;;;;;;23.30;14.27;;;14.60;99.90;;;;;;5182536;28;20439;-51
2022/10/22 09:05:18;;;;;;;20.37;13.47;;;14.70;99.90;;;;;;5183834;28;20529;-50
2022/10/22 09:07:49;;;;;;;23.53;13.47;;;14.70;99.90;;;;;;5183780;28;20455;-51
2022/10/22 09:10:24;;;;;;;31.47;14.73;;;14.70;99.90;;;;;;5179961;28;20870;-52
2022/10/22 09:12:54;;;;;;;25.00;15.63;;;14.70;99.90;;;;;;5180300;28;20192;-53
2022/10/22 09:15:26;;;;;;;14.13;11.93;;;14.80;99.90;;;;;;5181854;28;20451;-56
2022/10/22 09:18:41;;;;;;;22.07;12.70;;;14.80;99.90;;;;;;5182576;28;20204;-51
2022/10/22 09:21:29;;;;;;;20.10;14.03;;;14.90;99.90;;;;;;5183357;28;20427;-51
2022/10/22 09:24:12;;;;;;;19.77;14.20;;;15.00;99.90;;;;;;5180809;28;20431;-49
2022/10/22 09:26:42;;;;;;;17.13;11.87;;;15.00;99.90;;;;;;5183778;28;20451;-51
2022/10/22 09:29:22;;;;;;;26.57;14.93;;;15.10;99.90;;;;;;5187304;28;20447;-50
2022/10/22 09:31:52;;;;;;;20.37;14.40;;;15.20;99.90;;;;;;5185674;28;20667;-52
2022/10/22 09:34:23;;;;;;;17.30;11.70;;;15.20;99.90;;;;;;5179223;28;20442;-51
2022/10/22 09:36:59;;;;;;;20.53;12.90;;;15.30;99.90;;;;;;5184146;28;20204;-50
2022/10/22 09:39:39;;;;;;;17.33;12.93;;;15.40;99.90;;;;;;5188202;28;20595;-50
2022/10/22 09:42:14;;;;;;;24.77;14.33;;;15.40;99.90;;;;;;5184984;28;20425;-51
2022/10/22 09:44:52;;;;;;;18.03;11.93;;;15.40;99.90;;;;;;5187761;28;20463;-52
2022/10/22 09:47:36;;;;;;;24.47;14.70;;;15.40;99.90;;;;;;5188027;28;20445;-51
2022/10/22 09:50:18;;;;;;;15.50;11.97;;;15.40;99.90;;;;;;5185329;28;20446;-52
2022/10/22 09:53:17;;;;;;;22.70;13.10;;;15.60;99.90;;;;;;5185796;28;20439;-54
2022/10/22 09:55:54;;;;;;;17.53;12.23;;;15.80;99.90;;;;;;5185878;28;20453;-52
2022/10/22 09:58:26;;;;;;;38.40;12.63;;;16.00;99.90;;;;;;5179947;28;20506;-51
2022/10/22 10:00:59;;;;;;;17.00;12.63;;;16.20;99.90;;;;;;5179656;28;20973;-53
2022/10/22 10:03:32;;;;;;;15.67;11.63;;;16.30;99.90;;;;;;5183927;28;20471;-51
2022/10/22 10:06:03;;;;;;;17.47;11.03;;;16.20;99.90;;;;;;5180616;28;20435;-52
2022/10/22 10:08:33;;;;;;;15.97;11.67;;;16.10;99.90;;;;;;5178081;28;20473;-51
2022/10/22 10:11:07;;;;;;;12.47;11.03;;;16.00;99.90;;;;;;5185190;28;20463;-50
2022/10/22 10:13:57;;;;;;;13.30;10.97;;;16.00;99.90;;;;;;5180045;28;20227;-53
2022/10/22 10:16:58;;;;;;;14.67;11.50;;;16.00;99.90;;;;;;5178269;28;21038;-52
2022/10/22 10:19:46;;;;;;;27.50;15.23;;;16.10;99.90;;;;;;5178283;28;20445;-50
2022/10/22 10:22:23;;;;;;;13.70;11.17;;;16.00;99.90;;;;;;5194327;28;20463;-49
2022/10/22 10:25:18;;;;;;;25.43;14.50;;;16.10;99.90;;;;;;5183683;28;20987;-49
2022/10/22 10:28:16;;;;;;;19.00;13.37;;;16.10;99.90;;;;;;5180712;28;20499;-50
2022/10/22 10:31:16;;;;;;;19.40;12.43;;;16.10;99.90;;;;;;5184921;28;20423;-49
2022/10/22 10:34:21;;;;;;;16.73;11.57;;;16.10;99.90;;;;;;5185988;28;20440;-50
2022/10/22 10:37:16;;;;;;;18.50;13.47;;;16.20;99.90;;;;;;5177645;28;20492;-50
2022/10/22 10:40:11;;;;;;;16.30;12.90;;;16.20;99.90;;;;;;5179646;28;20823;-49
2022/10/22 10:43:24;;;;;;;13.40;11.20;;;16.30;99.90;;;;;;5180403;28;20435;-53
2022/10/22 10:46:04;;;;;;;14.60;11.87;;;16.50;99.90;;;;;;5166101;28;20602;-50
2022/10/22 10:49:01;;;;;;;20.40;14.03;;;16.70;99.90;;;;;;5176039;28;20458;-51
2022/10/22 10:51:44;;;;;;;20.77;11.33;;;16.80;99.90;;;;;;5200209;28;20762;-49
2022/10/22 10:54:24;;;;;;;21.13;12.10;;;16.70;99.90;;;;;;5179546;28;20874;-49
2022/10/22 10:56:57;;;;;;;15.53;11.93;;;16.70;99.90;;;;;;5186250;28;20851;-49
2022/10/22 11:00:12;;;;;;;19.37;14.00;;;16.80;99.90;;;;;;5186798;28;20467;-49
2022/10/22 11:02:58;;;;;;;20.73;13.53;;;16.90;99.90;;;;;;5186204;28;21370;-51
2022/10/22 11:05:38;;;;;;;16.93;12.97;;;17.00;99.90;;;;;;5200893;28;20466;-49
2022/10/22 11:08:28;;;;;;;16.90;12.17;;;17.20;99.90;;;;;;5186608;28;20459;-50
2022/10/22 11:11:10;;;;;;;20.03;13.57;;;17.40;99.90;;;;;;5196500;28;20443;-52
2022/10/22 11:13:58;;;;;;;22.27;13.90;;;17.50;99.90;;;;;;5183811;28;20438;-50
2022/10/22 11:16:48;;;;;;;29.93;17.67;;;17.80;99.90;;;;;;5184808;28;21233;-49
2022/10/22 11:19:44;;;;;;;24.47;14.90;;;17.90;99.90;;;;;;5181842;28;20725;-52
2022/10/22 11:22:24;;;;;;;15.40;12.73;;;17.90;99.90;;;;;;5180634;28;21019;-51
2022/10/22 11:25:20;;;;;;;18.53;14.63;;;17.90;99.90;;;;;;5183976;28;20434;-49
2022/10/22 11:28:02;;;;;;;25.70;15.30;;;17.70;99.90;;;;;;5183075;28;20530;-51
2022/10/22 11:30:35;;;;;;;27.17;16.53;;;17.60;99.90;;;;;;5183836;28;20470;-52
2022/10/22 11:33:11;;;;;;;17.73;12.43;;;17.60;99.90;;;;;;5181526;28;20436;-50
2022/10/22 11:35:44;;;;;;;21.93;13.90;;;17.50;99.90;;;;;;5177738;28;20510;-51
2022/10/22 11:38:23;;;;;;;29.50;17.50;;;17.70;99.90;;;;;;5182502;28;20478;-50
2022/10/22 11:41:12;;;;;;;26.17;16.30;;;17.70;99.90;;;;;;5183072;28;20451;-49
2022/10/22 11:44:04;;;;;;;23.00;14.90;;;17.70;99.90;;;;;;5186765;28;20442;-50
2022/10/22 11:46:52;;;;;;;19.97;13.20;;;17.60;99.90;;;;;;5181642;28;20443;-51
2022/10/22 11:49:40;;;;;;;14.60;11.97;;;17.60;99.90;;;;;;5180967;28;20463;-48
2022/10/22 11:52:31;;;;;;;21.23;13.57;;;17.60;99.90;;;;;;5180274;28;20749;-49
2022/10/22 11:55:22;;;;;;;24.90;14.70;;;17.70;99.90;;;;;;5182833;28;20477;-52
2022/10/22 11:57:57;;;;;;;18.90;13.10;;;17.80;99.90;;;;;;5175235;28;20499;-51
2022/10/22 12:00:34;;;;;;;13.90;10.57;;;17.90;99.90;;;;;;5178864;28;20438;-50
2022/10/22 12:03:30;;;;;;;19.90;12.80;;;18.10;99.90;;;;;;5184186;28;20434;-50
2022/10/22 12:06:11;;;;;;;17.17;11.47;;;18.40;99.90;;;;;;5175722;28;20861;-50
2022/10/22 12:08:45;;;;;;;13.77;10.70;;;18.50;99.90;;;;;;5180795;28;20988;-51
2022/10/22 12:11:27;;;;;;;10.70;9.47;;;18.50;99.90;;;;;;5179042;28;20510;-49
2022/10/22 12:14:21;;;;;;;25.33;12.67;;;18.50;99.90;;;;;;5183600;28;20439;-50
2022/10/22 12:17:01;;;;;;;13.27;10.03;;;18.40;99.90;;;;;;5184155;28;20834;-50
2022/10/22 12:19:47;;;;;;;15.87;11.07;;;18.50;99.90;;;;;;5189429;28;20479;-52
2022/10/22 12:22:20;;;;;;;14.87;10.47;;;18.50;99.90;;;;;;5180039;28;20430;-48
2022/10/22 12:24:53;;;;;;;9.93;8.60;;;18.60;99.90;;;;;;5184242;28;20430;-49
2022/10/22 12:27:28;;;;;;;10.40;8.00;;;18.50;99.90;;;;;;5183663;28;20462;-50
2022/10/22 12:30:01;;;;;;;14.20;8.67;;;18.40;99.90;;;;;;5179493;28;20450;-49
2022/10/22 12:32:37;;;;;;;10.77;7.93;;;18.20;99.90;;;;;;5172432;28;20959;-49
2022/10/22 12:35:15;;;;;;;12.70;9.63;;;18.00;99.90;;;;;;5182854;28;20793;-48
2022/10/22 12:37:57;;;;;;;22.40;13.33;;;18.00;99.90;;;;;;5181660;28;20474;-51
2022/10/22 12:40:32;;;;;;;12.80;8.97;;;17.90;99.90;;;;;;5177028;28;20522;-49
2022/10/22 12:43:14;;;;;;;17.03;8.53;;;18.00;99.90;;;;;;5174940;28;20457;-50
2022/10/22 12:45:48;;;;;;;14.80;8.83;;;18.00;99.90;;;;;;5173047;28;20456;-49
2022/10/22 12:48:18;;;;;;;56.80;29.07;;;18.10;99.90;;;;;;5168633;28;20963;-49
2022/10/22 12:50:54;;;;;;;28.03;13.00;;;18.10;99.90;;;;;;5177159;28;20436;-50
2022/10/22 12:53:36;;;;;;;30.20;13.67;;;18.20;99.90;;;;;;5184194;28;20235;-50
2022/10/22 12:56:14;;;;;;;14.13;9.20;;;18.20;99.90;;;;;;5183314;28;20467;-51
2022/10/22 12:58:56;;;;;;;7.97;6.87;;;18.30;99.90;;;;;;5186213;28;20528;-49
2022/10/22 13:01:33;;;;;;;25.07;13.40;;;18.40;99.90;;;;;;5181856;28;20439;-49
2022/10/22 13:04:20;;;;;;;12.40;8.57;;;18.50;99.90;;;;;;5185407;28;20477;-50
2022/10/22 13:07:12;;;;;;;7.97;6.20;;;18.50;99.90;;;;;;5183019;28;20449;-50
2022/10/22 13:09:57;;;;;;;11.73;6.83;;;18.40;99.90;;;;;;5187075;28;20449;-49
2022/10/22 13:12:35;;;;;;;6.33;4.80;;;18.40;99.90;;;;;;5180921;28;20445;-48